createdAt,value
2023-01-23T00:01:35.580Z,52.75
2023-01-23T00:04:06.009Z,52.38
2023-01-23T00:06:34.089Z,52.77
2023-01-23T00:09:02.081Z,52.76
2023-01-23T00:11:30.530Z,52.31
2023-01-23T00:13:59.423Z,52.28
2023-01-23T00:16:30.592Z,52.50
2023-01-23T00:18:58.869Z,52.55
2023-01-23T00:21:29.423Z,52.50
2023-01-23T00:23:59.870Z,52.70
2023-01-23T00:26:30.258Z,52.17
2023-01-23T00:28:58.300Z,51.97
2023-01-23T00:31:30.754Z,51.85
2023-01-23T00:34:02.021Z,52.15
2023-01-23T00:36:48.097Z,51.94
2023-01-23T00:39:21.594Z,51.73
2023-01-23T00:41:49.825Z,51.96
2023-01-23T00:44:17.928Z,52.17
2023-01-23T00:46:46.310Z,52.20
2023-01-23T00:49:14.305Z,53.05
2023-01-23T00:51:45.463Z,53.41
2023-01-23T00:54:13.354Z,53.21
2023-01-23T00:56:41.350Z,53.29
2023-01-23T00:59:09.415Z,53.15
2023-01-23T01:01:38.202Z,53.17
2023-01-23T01:04:06.548Z,53.06
2023-01-23T01:06:34.493Z,53.28
2023-01-23T01:09:02.922Z,53.34
2023-01-23T01:11:30.962Z,53.56
2023-01-23T01:14:01.570Z,53.30
2023-01-23T01:16:29.773Z,53.12
2023-01-23T01:18:59.507Z,52.81
2023-01-23T01:21:27.821Z,53.04
2023-01-23T01:23:56.053Z,53.88
2023-01-23T01:26:25.141Z,53.76
2023-01-23T01:28:53.033Z,53.87
2023-01-23T01:31:20.933Z,53.47
2023-01-23T01:33:50.058Z,53.43
2023-01-23T01:36:21.841Z,53.11
2023-01-23T01:38:49.751Z,53.93
2023-01-23T01:41:18.247Z,53.84
2023-01-23T01:43:46.751Z,53.77
2023-01-23T01:46:23.256Z,54.30
2023-01-23T01:48:59.263Z,54.92
2023-01-23T01:51:33.279Z,55.07
2023-01-23T01:54:03.631Z,55.40
2023-01-23T01:56:35.781Z,55.33
2023-01-23T01:59:05.114Z,55.46
2023-01-23T02:01:33.543Z,55.54
2023-01-23T02:04:05.191Z,55.13
2023-01-23T02:06:33.301Z,56.12
2023-01-23T02:09:17.904Z,55.38
2023-01-23T02:11:47.094Z,55.44
2023-01-23T02:14:15.151Z,55.34
2023-01-23T02:16:50.428Z,55.85
2023-01-23T02:19:32.451Z,55.84
2023-01-23T02:22:12.639Z,55.37
2023-01-23T02:24:50.165Z,56.13
2023-01-23T02:27:19.820Z,56.29
2023-01-23T02:29:48.671Z,56.00
2023-01-23T02:32:17.146Z,55.85
2023-01-23T02:34:45.365Z,56.45
2023-01-23T02:37:14.773Z,56.63
2023-01-23T02:39:42.841Z,56.91
2023-01-23T02:42:13.241Z,57.34
2023-01-23T02:44:46.844Z,57.63
2023-01-23T02:47:16.911Z,57.95
2023-01-23T02:49:45.171Z,57.93
2023-01-23T02:52:13.456Z,58.05
2023-01-23T02:54:41.402Z,58.30
2023-01-23T02:57:11.022Z,58.33
2023-01-23T02:59:58.282Z,58.12
2023-01-23T03:02:27.980Z,58.02
2023-01-23T03:04:56.073Z,58.62
2023-01-23T03:07:24.112Z,57.50
2023-01-23T03:09:52.236Z,56.99
2023-01-23T03:12:20.321Z,57.31
2023-01-23T03:14:50.151Z,56.86
2023-01-23T03:17:19.501Z,57.17
2023-01-23T03:19:47.521Z,56.86
2023-01-23T03:22:15.832Z,56.63
2023-01-23T03:24:43.873Z,56.70
2023-01-23T03:27:11.921Z,56.03
2023-01-23T03:30:03.433Z,55.73
2023-01-23T03:32:31.655Z,54.62
2023-01-23T03:35:00.117Z,55.52
2023-01-23T03:37:29.075Z,55.10
2023-01-23T03:40:17.593Z,54.41
2023-01-23T03:42:45.594Z,54.63
2023-01-23T03:45:16.315Z,54.51
2023-01-23T03:47:44.417Z,53.78
2023-01-23T03:50:12.439Z,55.03
2023-01-23T03:52:41.351Z,54.24
2023-01-23T03:55:10.434Z,52.60
2023-01-23T03:57:39.395Z,54.48
2023-01-23T04:00:08.210Z,55.03
2023-01-23T04:02:44.273Z,54.02
2023-01-23T04:05:15.120Z,54.24
2023-01-23T04:07:43.031Z,53.75
2023-01-23T04:10:13.136Z,53.03
2023-01-23T04:12:43.441Z,53.25
2023-01-23T04:15:12.554Z,53.93
2023-01-23T04:17:42.426Z,53.79
2023-01-23T04:20:11.903Z,54.20
2023-01-23T04:22:43.284Z,54.12
2023-01-23T04:25:11.537Z,53.64
2023-01-23T04:27:39.662Z,52.62
2023-01-23T04:30:10.261Z,53.27
2023-01-23T04:32:38.322Z,52.72
2023-01-23T04:35:06.794Z,52.41
2023-01-23T04:37:37.362Z,51.64
2023-01-23T04:40:05.992Z,51.18
2023-01-23T04:42:42.680Z,51.32
2023-01-23T04:45:30.925Z,51.96
2023-01-23T04:48:19.903Z,51.66
2023-01-23T04:50:50.109Z,51.69
2023-01-23T04:53:18.361Z,51.91
2023-01-23T04:55:50.112Z,51.13
2023-01-23T04:58:19.981Z,50.49
2023-01-23T05:00:48.167Z,50.58
2023-01-23T05:03:17.344Z,51.33
2023-01-23T05:05:48.548Z,51.32
2023-01-23T05:08:16.801Z,51.26
2023-01-23T05:10:51.286Z,52.07
2023-01-23T05:13:21.052Z,52.17
2023-01-23T05:15:49.021Z,52.51
2023-01-23T05:18:17.965Z,51.46
2023-01-23T05:20:47.256Z,53.42
2023-01-23T05:23:15.394Z,54.13
2023-01-23T05:25:50.675Z,53.98
2023-01-23T05:28:18.723Z,54.52
2023-01-23T05:30:53.755Z,55.87
2023-01-23T05:33:28.863Z,55.12
2023-01-23T05:36:00.722Z,55.49
2023-01-23T05:38:28.871Z,56.46
2023-01-23T05:40:56.912Z,56.79
2023-01-23T05:44:03.536Z,58.22
2023-01-23T05:46:41.400Z,58.85
2023-01-23T05:49:09.635Z,59.47
2023-01-23T05:51:38.518Z,60.26
2023-01-23T05:54:07.948Z,61.13
2023-01-23T05:56:36.164Z,59.59
2023-01-23T05:59:22.622Z,60.67
2023-01-23T06:02:11.073Z,61.75
2023-01-23T06:04:57.335Z,61.75
2023-01-23T06:07:35.793Z,61.97
2023-01-23T06:10:10.016Z,61.59
2023-01-23T06:12:38.245Z,61.56
2023-01-23T06:15:06.564Z,61.32
2023-01-23T06:17:34.691Z,62.21
2023-01-23T06:20:03.469Z,61.41
2023-01-23T06:22:32.176Z,61.75
2023-01-23T06:25:07.985Z,63.25
2023-01-23T06:27:35.973Z,64.85
2023-01-23T06:30:07.420Z,64.19
2023-01-23T06:32:40.508Z,64.10
2023-01-23T06:35:09.922Z,64.81
2023-01-23T06:37:41.162Z,65.94
2023-01-23T06:40:14.830Z,65.74
2023-01-23T06:42:54.391Z,65.92
2023-01-23T06:45:22.647Z,65.15
2023-01-23T06:47:54.887Z,66.21
2023-01-23T06:50:23.671Z,66.77
2023-01-23T06:52:51.507Z,67.94
2023-01-23T06:55:21.432Z,68.90
2023-01-23T06:57:49.811Z,69.18
2023-01-23T07:00:18.422Z,69.23
2023-01-23T07:02:46.876Z,68.80
2023-01-23T07:05:15.351Z,68.76
2023-01-23T07:07:46.958Z,68.11
2023-01-23T07:10:14.876Z,68.13
2023-01-23T07:12:43.338Z,67.67
2023-01-23T07:15:11.764Z,68.37
2023-01-23T07:17:41.463Z,67.98
2023-01-23T07:20:10.168Z,67.54
2023-01-23T07:22:43.245Z,67.99
2023-01-23T07:25:11.205Z,68.27
2023-01-23T07:27:39.082Z,68.41
2023-01-23T07:30:07.611Z,68.50
2023-01-23T07:32:35.521Z,68.42
2023-01-23T07:35:03.481Z,68.69
2023-01-23T07:37:31.523Z,68.52
2023-01-23T07:39:59.386Z,68.94
2023-01-23T07:42:27.344Z,69.45
2023-01-23T07:44:55.181Z,69.74
2023-01-23T07:47:23.028Z,69.98
2023-01-23T07:49:50.919Z,70.55
2023-01-23T07:52:18.824Z,70.33
2023-01-23T07:54:46.708Z,70.41
2023-01-23T07:57:15.133Z,70.89
2023-01-23T07:59:43.011Z,71.40
2023-01-23T08:02:11.525Z,71.30
2023-01-23T08:04:39.739Z,72.01
2023-01-23T08:07:07.636Z,72.83
2023-01-23T08:09:35.633Z,72.54
2023-01-23T08:12:03.711Z,72.45
2023-01-23T08:14:31.715Z,72.35
2023-01-23T08:17:01.764Z,72.74
2023-01-23T08:19:29.682Z,72.63
2023-01-23T08:21:57.532Z,72.74
2023-01-23T08:24:25.433Z,72.92
2023-01-23T08:26:53.288Z,73.39
2023-01-23T08:29:21.200Z,73.98
2023-01-23T08:31:49.106Z,75.06
2023-01-23T08:34:16.973Z,74.37
2023-01-23T08:36:44.800Z,74.57
2023-01-23T08:39:12.631Z,74.91
2023-01-23T08:41:40.462Z,76.10
2023-01-23T08:44:08.378Z,76.90
2023-01-23T08:46:36.282Z,76.66
2023-01-23T08:49:05.206Z,77.50
2023-01-23T08:51:33.931Z,77.94
2023-01-23T08:54:01.826Z,78.17
2023-01-23T08:56:29.739Z,77.35
2023-01-23T08:58:57.740Z,77.72
2023-01-23T09:01:27.215Z,80.03
2023-01-23T09:03:55.351Z,80.87
2023-01-23T09:06:23.549Z,82.50
2023-01-23T09:08:51.619Z,83.28
2023-01-23T09:11:20.113Z,83.72
2023-01-23T09:13:48.214Z,84.73
2023-01-23T09:16:17.275Z,85.27
2023-01-23T09:18:45.281Z,83.01
2023-01-23T09:21:17.574Z,83.54
2023-01-23T09:23:45.736Z,84.52
2023-01-23T09:26:15.388Z,85.07
2023-01-23T09:28:43.793Z,86.01
2023-01-23T09:31:14.170Z,85.22
2023-01-23T09:33:42.532Z,85.06
2023-01-23T09:36:11.601Z,86.52
2023-01-23T09:38:39.752Z,86.75
2023-01-23T09:41:17.606Z,88.08
2023-01-23T09:43:54.432Z,88.20
2023-01-23T09:46:29.230Z,89.08
2023-01-23T09:49:09.469Z,88.92
2023-01-23T09:52:02.263Z,88.49
2023-01-23T09:54:44.735Z,88.19
2023-01-23T09:57:16.629Z,88.32
2023-01-23T10:00:00.163Z,87.94
2023-01-23T10:02:31.049Z,88.12
2023-01-23T10:05:02.985Z,88.03
2023-01-23T10:07:40.591Z,87.34
2023-01-23T10:10:45.952Z,86.93
2023-01-23T10:13:23.234Z,86.39
2023-01-23T10:16:13.735Z,87.46
2023-01-23T10:19:08.089Z,87.07
2023-01-23T10:22:22.847Z,86.92
2023-01-23T10:24:55.140Z,87.22
2023-01-23T10:27:26.901Z,86.84
2023-01-23T10:30:29.955Z,86.91
2023-01-23T10:32:57.811Z,86.99
2023-01-23T10:35:47.513Z,86.74
2023-01-23T10:38:35.355Z,86.97
2023-01-23T10:41:15.310Z,85.87
2023-01-23T10:43:46.343Z,87.30
2023-01-23T10:46:20.408Z,87.79
2023-01-23T10:48:52.682Z,87.83
2023-01-23T10:51:38.703Z,87.36
2023-01-23T10:54:11.363Z,87.13
2023-01-23T10:57:03.272Z,87.22
2023-01-23T10:59:36.238Z,87.15
2023-01-23T11:02:31.496Z,86.48
2023-01-23T11:05:00.636Z,86.19
2023-01-23T11:07:33.441Z,85.75
2023-01-23T11:10:07.722Z,86.02
2023-01-23T11:12:48.101Z,85.61
2023-01-23T11:15:27.260Z,85.44
2023-01-23T11:17:57.023Z,84.08
2023-01-23T11:20:37.430Z,82.11
2023-01-23T11:23:08.710Z,82.53
2023-01-23T11:25:42.426Z,80.55
2023-01-23T11:28:48.769Z,80.17
2023-01-23T11:31:21.846Z,81.40
2023-01-23T11:34:10.484Z,81.44
2023-01-23T11:37:08.333Z,81.83
2023-01-23T11:40:15.470Z,81.33
2023-01-23T11:42:44.162Z,81.37
2023-01-23T11:45:36.131Z,82.68
2023-01-23T11:48:42.510Z,82.18
2023-01-23T11:51:38.431Z,81.37
2023-01-23T11:54:30.266Z,81.05
2023-01-23T11:57:24.625Z,79.06
2023-01-23T12:00:02.189Z,78.63
2023-01-23T12:03:04.584Z,77.55
2023-01-23T12:05:38.856Z,75.89
2023-01-23T12:08:35.775Z,75.66
2023-01-23T12:11:16.558Z,75.67
2023-01-23T12:14:18.621Z,75.08
2023-01-23T12:16:53.973Z,74.73
2023-01-23T12:19:40.551Z,75.59
2023-01-23T12:22:11.307Z,74.65
2023-01-23T12:24:47.097Z,74.73
2023-01-23T12:27:24.197Z,74.75
2023-01-23T12:30:23.221Z,73.89
2023-01-23T12:33:19.467Z,72.53
2023-01-23T12:35:54.480Z,72.85
2023-01-23T12:38:28.576Z,71.56
2023-01-23T12:41:14.732Z,72.61
2023-01-23T12:43:59.816Z,72.49
2023-01-23T12:46:44.487Z,71.06
2023-01-23T12:49:21.623Z,70.89
2023-01-23T12:52:18.474Z,70.22
2023-01-23T12:54:52.211Z,69.94
2023-01-23T12:57:52.598Z,69.60
2023-01-23T13:00:53.173Z,69.28
2023-01-23T13:03:51.952Z,68.01
2023-01-23T13:06:37.465Z,66.85
2023-01-23T13:09:20.186Z,65.53
2023-01-23T13:12:08.972Z,64.07
2023-01-23T13:15:13.930Z,64.54
2023-01-23T13:17:45.420Z,64.71
2023-01-23T13:20:38.645Z,63.68
2023-01-23T13:23:24.796Z,63.62
2023-01-23T13:26:16.041Z,63.09
2023-01-23T13:28:57.820Z,62.83
2023-01-23T13:31:47.143Z,62.39
2023-01-23T13:34:18.559Z,63.08
2023-01-23T13:36:51.567Z,63.89
2023-01-23T13:39:30.317Z,63.65
2023-01-23T13:42:16.229Z,62.58
2023-01-23T13:45:27.483Z,62.97
2023-01-23T15:05:59.643Z,60.38
2023-01-23T15:08:32.511Z,61.23
2023-01-23T15:11:01.950Z,61.57
2023-01-23T15:13:35.717Z,61.85
2023-01-23T15:16:07.106Z,62.15
2023-01-23T15:18:36.647Z,62.11
2023-01-23T15:21:08.934Z,61.98
2023-01-23T15:23:38.850Z,62.57
2023-01-23T15:26:18.870Z,62.06
2023-01-23T15:28:57.761Z,61.98
2023-01-23T15:31:33.614Z,61.94
2023-01-23T15:34:20.730Z,61.09
2023-01-23T15:37:19.167Z,61.58
2023-01-23T15:39:47.008Z,61.05
2023-01-23T15:42:14.923Z,61.38
2023-01-23T15:44:43.644Z,61.01
2023-01-23T15:47:11.727Z,61.92
2023-01-23T15:49:40.651Z,62.97
2023-01-23T15:52:46.227Z,63.40
2023-01-23T15:55:15.315Z,63.41
2023-01-23T15:57:43.992Z,63.72
2023-01-23T16:00:16.775Z,63.71
2023-01-23T16:02:55.741Z,63.83
2023-01-23T16:05:37.504Z,62.53
2023-01-23T16:08:14.148Z,63.20
2023-01-23T16:10:42.230Z,62.96
2023-01-23T16:13:14.125Z,63.03
2023-01-23T16:15:42.372Z,61.88
2023-01-23T16:18:10.653Z,61.94
2023-01-23T16:20:43.815Z,61.31
2023-01-23T16:23:15.549Z,62.04
2023-01-23T16:25:46.140Z,61.62
2023-01-23T16:28:21.378Z,61.83
2023-01-23T16:30:52.013Z,62.16
2023-01-23T16:33:21.036Z,61.02
2023-01-23T16:35:51.087Z,61.04
2023-01-23T16:38:28.301Z,60.90
2023-01-23T16:40:59.759Z,60.42
2023-01-23T16:43:28.076Z,60.42
2023-01-23T16:45:56.879Z,60.31
2023-01-23T16:48:28.506Z,60.46
2023-01-23T16:51:08.607Z,60.65
2023-01-23T16:53:40.985Z,60.23
2023-01-23T16:56:20.568Z,61.19
2023-01-23T16:58:49.732Z,61.61
2023-01-23T17:01:23.308Z,61.38
2023-01-23T17:04:04.056Z,60.19
2023-01-23T17:06:32.332Z,60.31
2023-01-23T17:09:00.278Z,60.21
2023-01-23T17:11:34.366Z,59.45
2023-01-23T17:14:09.550Z,59.58
2023-01-23T17:16:37.505Z,59.41
2023-01-23T17:19:16.668Z,59.17
2023-01-23T17:21:46.225Z,59.54
2023-01-23T17:24:17.989Z,59.78
2023-01-23T17:26:46.459Z,59.55
2023-01-23T17:29:15.413Z,59.64
2023-01-23T17:31:43.851Z,59.76
2023-01-23T17:34:24.332Z,60.37
2023-01-23T17:36:54.612Z,62.74
2023-01-23T17:39:22.674Z,64.06
2023-01-23T17:41:51.607Z,65.35
2023-01-23T17:44:19.626Z,65.47
2023-01-23T17:46:48.036Z,65.29
2023-01-23T17:49:30.539Z,65.63
2023-01-23T17:51:59.801Z,64.95
2023-01-23T17:54:29.072Z,65.10
2023-01-23T17:56:56.990Z,64.25
2023-01-23T17:59:25.110Z,63.51
2023-01-23T18:01:53.258Z,64.11
2023-01-23T18:04:23.067Z,63.54
2023-01-23T18:06:51.497Z,63.46
2023-01-23T18:09:20.557Z,62.58
2023-01-23T18:11:52.722Z,61.51
2023-01-23T18:14:48.099Z,60.88
2023-01-23T18:17:28.847Z,61.25
2023-01-23T18:19:57.108Z,61.34
2023-01-23T18:22:25.358Z,60.06
2023-01-23T18:24:53.551Z,59.81
2023-01-23T18:27:26.607Z,60.14
2023-01-23T18:30:18.737Z,58.99
2023-01-23T18:32:46.643Z,59.50
2023-01-23T18:35:35.475Z,59.72
2023-01-23T18:38:06.161Z,58.97
2023-01-23T18:40:58.331Z,59.53
2023-01-23T18:43:33.927Z,60.37
2023-01-23T18:46:02.094Z,60.19
2023-01-23T18:48:30.507Z,60.12
2023-01-23T18:51:14.247Z,58.91
2023-01-23T18:53:50.908Z,58.29
2023-01-23T18:56:24.970Z,59.58
2023-01-23T18:59:12.048Z,59.83
2023-01-23T19:02:09.855Z,59.82
2023-01-23T19:04:45.935Z,61.73
2023-01-23T19:07:19.087Z,64.71
2023-01-23T19:09:48.670Z,65.99
2023-01-23T19:12:41.771Z,67.88
2023-01-23T19:15:33.444Z,68.80
2023-01-23T19:18:40.498Z,68.39
2023-01-23T19:21:23.723Z,68.72
2023-01-23T19:24:02.009Z,68.83
2023-01-23T19:26:34.509Z,67.40
2023-01-23T19:29:19.990Z,64.71
2023-01-23T19:32:03.701Z,64.52
2023-01-23T19:34:34.992Z,64.58
2023-01-23T19:37:03.615Z,63.26
2023-01-23T19:39:31.853Z,62.63
2023-01-23T19:42:00.439Z,62.33
2023-01-23T19:44:36.789Z,62.08
2023-01-23T19:47:34.214Z,62.67
2023-01-23T19:50:03.333Z,61.73
2023-01-23T19:52:32.472Z,62.09
2023-01-23T19:55:00.835Z,60.62
2023-01-23T19:57:29.767Z,60.12
2023-01-23T19:59:57.903Z,60.27
2023-01-23T20:02:27.000Z,59.94
2023-01-23T20:04:57.972Z,60.04
2023-01-23T20:07:27.483Z,60.38
2023-01-23T20:09:56.070Z,58.91
2023-01-23T20:12:24.208Z,58.97
2023-01-23T20:14:52.623Z,59.19
2023-01-23T20:17:20.983Z,59.18
2023-01-23T20:19:49.427Z,60.05
2023-01-23T20:22:19.603Z,60.11
2023-01-23T20:24:47.899Z,60.33
2023-01-23T20:27:15.941Z,62.47
2023-01-23T20:29:43.895Z,63.31
2023-01-23T20:32:13.209Z,63.25
2023-01-23T20:34:42.019Z,63.27
2023-01-23T20:37:11.492Z,63.79
2023-01-23T20:39:41.831Z,63.82
2023-01-23T20:42:11.444Z,63.37
2023-01-23T20:44:41.397Z,63.56
2023-01-23T20:47:11.009Z,64.63
2023-01-23T20:49:39.789Z,64.10
2023-01-23T20:52:26.201Z,64.53
2023-01-23T20:54:54.712Z,64.31
2023-01-23T20:57:22.749Z,64.69
2023-01-23T20:59:51.040Z,63.76
2023-01-23T21:02:25.791Z,63.98
2023-01-23T21:04:54.143Z,63.70
2023-01-23T21:07:22.859Z,63.62
2023-01-23T21:09:51.309Z,64.42
2023-01-23T21:12:19.584Z,64.16
2023-01-23T21:14:47.639Z,64.75
2023-01-23T21:17:15.731Z,64.75
2023-01-23T21:19:45.429Z,64.72
2023-01-23T21:22:13.801Z,64.02
2023-01-23T21:24:41.988Z,64.47
2023-01-23T21:27:10.160Z,64.08
2023-01-23T21:29:38.703Z,64.37
2023-01-23T21:32:06.737Z,64.66
2023-01-23T21:34:34.809Z,65.08
2023-01-23T21:37:05.071Z,65.84
2023-01-23T21:39:35.234Z,67.10
2023-01-23T21:42:03.275Z,68.91
2023-01-23T21:44:31.696Z,67.68
2023-01-23T21:47:00.699Z,67.64
2023-01-23T21:49:30.674Z,68.89
2023-01-23T21:51:58.634Z,69.94
2023-01-23T21:54:26.719Z,69.83
2023-01-23T21:56:54.821Z,69.14
2023-01-23T21:59:22.829Z,69.50
2023-01-23T22:01:50.858Z,70.94
2023-01-23T22:04:23.488Z,71.00
2023-01-23T22:06:57.052Z,69.20
2023-01-23T22:09:26.200Z,68.89
2023-01-23T22:11:55.084Z,68.90
2023-01-23T22:14:24.236Z,69.07
2023-01-23T22:16:52.907Z,69.93
2023-01-23T22:19:25.627Z,70.21
2023-01-23T22:21:55.427Z,68.87
2023-01-23T22:24:23.836Z,68.61
2023-01-23T22:26:51.961Z,68.49
2023-01-23T22:29:20.064Z,68.32
2023-01-23T22:31:48.156Z,68.50
2023-01-23T22:34:16.224Z,68.09
2023-01-23T22:36:44.124Z,68.84
2023-01-23T22:39:16.443Z,68.22
2023-01-23T22:41:46.372Z,68.77
2023-01-23T22:44:14.598Z,68.54
2023-01-23T22:46:43.065Z,68.63
2023-01-23T22:49:11.402Z,68.79
2023-01-23T22:51:39.426Z,69.25
2023-01-23T22:54:07.608Z,68.95
2023-01-23T22:56:35.723Z,68.74
2023-01-23T22:59:04.235Z,68.92
2023-01-23T23:01:32.374Z,70.26
2023-01-23T23:04:00.641Z,70.91
2023-01-23T23:06:28.994Z,70.93
2023-01-23T23:08:56.962Z,70.72
2023-01-23T23:11:27.872Z,72.08
2023-01-23T23:13:57.418Z,71.41
2023-01-23T23:16:28.705Z,71.58
2023-01-23T23:18:59.584Z,72.53
2023-01-23T23:21:31.789Z,73.54
2023-01-23T23:24:00.887Z,73.24
2023-01-23T23:26:31.655Z,73.65
2023-01-23T23:29:02.893Z,73.91
2023-01-23T23:31:31.142Z,74.07
2023-01-23T23:33:59.240Z,74.72
2023-01-23T23:36:27.456Z,75.68
2023-01-23T23:38:55.419Z,74.98
2023-01-23T23:41:23.356Z,74.63
2023-01-23T23:43:51.783Z,74.52
2023-01-23T23:46:19.898Z,72.87
2023-01-23T23:48:48.344Z,73.02
2023-01-23T23:51:18.983Z,74.51
2023-01-23T23:53:46.911Z,74.02
2023-01-23T23:56:26.813Z,72.11
2023-01-23T23:58:56.079Z,71.53
